createdAt,value
2019-04-25T00:01:43.919Z,46.11
2019-04-25T00:04:15.951Z,46.07
2019-04-25T00:06:47.183Z,46.13
2019-04-25T00:09:21.882Z,46.24
2019-04-25T00:11:53.257Z,46.30
2019-04-25T00:14:24.560Z,46.44
2019-04-25T00:16:55.926Z,46.41
2019-04-25T00:19:27.107Z,46.53
2019-04-25T00:22:07.684Z,46.66
2019-04-25T00:24:47.255Z,46.61
2019-04-25T00:27:19.730Z,46.66
2019-04-25T00:29:51.670Z,46.68
2019-04-25T00:32:23.086Z,46.80
2019-04-25T00:34:54.435Z,46.63
2019-04-25T00:37:25.791Z,46.78
2019-04-25T00:39:57.014Z,46.79
2019-04-25T00:42:28.262Z,46.87
2019-04-25T00:44:59.568Z,46.99
2019-04-25T00:47:31.554Z,46.96
2019-04-25T00:50:02.904Z,46.96
2019-04-25T00:52:34.112Z,47.12
2019-04-25T00:55:05.580Z,47.09
2019-04-25T00:57:38.908Z,47.28
2019-04-25T01:00:46.979Z,47.34
2019-04-25T01:03:23.714Z,47.33
2019-04-25T01:05:54.920Z,47.43
2019-04-25T01:08:26.421Z,47.62
2019-04-25T01:10:57.691Z,47.62
2019-04-25T01:13:28.833Z,47.66
2019-04-25T01:15:59.981Z,47.62
2019-04-25T01:18:31.487Z,47.65
2019-04-25T01:21:04.329Z,47.81
2019-04-25T01:23:37.299Z,47.83
2019-04-25T01:26:08.670Z,47.83
2019-04-25T01:28:39.966Z,47.85
2019-04-25T01:31:14.779Z,47.90
2019-04-25T01:33:46.778Z,47.99
2019-04-25T01:36:33.415Z,48.07
2019-04-25T01:39:15.954Z,48.10
2019-04-25T01:41:56.359Z,47.95
2019-04-25T01:44:31.496Z,47.96
2019-04-25T01:47:04.185Z,47.90
2019-04-25T01:49:35.438Z,47.93
2019-04-25T01:52:06.952Z,47.92
2019-04-25T01:54:38.262Z,47.88
2019-04-25T01:57:09.927Z,47.84
2019-04-25T01:59:41.149Z,47.84
2019-04-25T02:02:15.148Z,47.84
2019-04-25T02:04:46.507Z,47.76
2019-04-25T02:07:17.681Z,47.71
2019-04-25T02:09:48.944Z,47.67
2019-04-25T02:12:43.693Z,47.71
2019-04-25T02:15:16.583Z,47.65
2019-04-25T02:17:47.744Z,47.64
2019-04-25T02:20:18.982Z,47.61
2019-04-25T02:22:50.197Z,47.59
2019-04-25T02:25:22.995Z,47.60
2019-04-25T02:27:55.722Z,47.56
2019-04-25T02:30:27.669Z,47.54
2019-04-25T02:33:02.769Z,47.52
2019-04-25T02:35:35.015Z,47.52
2019-04-25T02:38:08.791Z,47.56
2019-04-25T02:40:39.819Z,47.60
2019-04-25T02:43:11.060Z,47.64
2019-04-25T02:46:07.429Z,47.70
2019-04-25T02:49:01.405Z,47.75
2019-04-25T02:51:44.976Z,47.76
2019-04-25T02:54:15.626Z,47.74
2019-04-25T02:56:46.902Z,47.76
2019-04-25T02:59:18.054Z,47.78
2019-04-25T03:01:49.449Z,47.81
2019-04-25T03:04:20.638Z,47.85
2019-04-25T03:06:51.896Z,47.89
2019-04-25T03:09:24.959Z,47.96
2019-04-25T03:11:55.928Z,48.05
2019-04-25T03:14:27.089Z,48.16
2019-04-25T03:16:59.202Z,48.25
2019-04-25T03:19:54.224Z,48.35
2019-04-25T03:22:28.286Z,48.59
2019-04-25T03:25:02.240Z,48.59
2019-04-25T03:27:34.035Z,48.59
2019-04-25T03:30:11.259Z,48.67
2019-04-25T03:32:39.878Z,48.67
2019-04-25T03:35:11.159Z,48.70
2019-04-25T03:37:43.610Z,48.74
2019-04-25T03:40:14.868Z,48.82
2019-04-25T03:42:46.091Z,48.91
2019-04-25T03:45:17.336Z,48.96
2019-04-25T03:47:48.558Z,49.02
2019-04-25T03:50:19.811Z,49.11
2019-04-25T03:52:50.952Z,49.19
2019-04-25T03:55:23.969Z,49.26
2019-04-25T03:57:56.347Z,49.35
2019-04-25T04:00:27.630Z,49.42
2019-04-25T04:03:00.628Z,49.47
2019-04-25T04:05:31.881Z,49.48
2019-04-25T04:08:04.316Z,49.59
2019-04-25T04:10:35.905Z,49.67
2019-04-25T04:13:07.487Z,49.68
2019-04-25T04:15:39.696Z,49.75
2019-04-25T04:18:29.809Z,49.77
2019-04-25T04:21:19.867Z,49.83
2019-04-25T04:24:07.522Z,49.93
2019-04-25T04:26:38.670Z,49.96
2019-04-25T04:29:10.083Z,49.99
2019-04-25T04:31:43.086Z,50.05
2019-04-25T04:34:15.552Z,50.10
2019-04-25T04:36:46.841Z,50.15
2019-04-25T04:39:18.806Z,50.19
2019-04-25T04:41:50.072Z,50.19
2019-04-25T04:44:21.287Z,50.20
2019-04-25T04:46:53.843Z,50.20
2019-04-25T04:49:25.030Z,50.25
2019-04-25T04:51:56.315Z,50.29
2019-04-25T04:54:27.440Z,50.30
2019-04-25T04:56:58.613Z,50.31
2019-04-25T04:59:29.879Z,50.33
2019-04-25T05:02:23.553Z,50.33
2019-04-25T05:05:24.766Z,50.36
2019-04-25T05:08:16.406Z,50.38
2019-04-25T05:10:48.078Z,50.33
2019-04-25T05:13:19.831Z,50.31
2019-04-25T05:15:51.102Z,50.32
2019-04-25T05:18:34.553Z,50.29
2019-04-25T05:20:55.260Z,50.26
2019-04-25T05:23:26.667Z,50.25
2019-04-25T05:25:57.869Z,50.23
2019-04-25T05:28:29.075Z,50.26
2019-04-25T05:31:18.161Z,50.19
2019-04-25T05:33:49.378Z,50.14
2019-04-25T05:36:20.654Z,50.09
2019-04-25T05:38:51.919Z,50.03
2019-04-25T05:41:36.011Z,49.93
2019-04-25T05:44:07.289Z,49.81
2019-04-25T05:46:38.524Z,49.68
2019-04-25T05:49:09.708Z,49.58
2019-04-25T05:51:40.909Z,49.44
2019-04-25T05:54:13.971Z,49.31
2019-04-25T05:56:45.073Z,49.24
2019-04-25T05:59:17.939Z,49.18
2019-04-25T06:01:49.626Z,49.05
2019-04-25T06:04:21.033Z,48.93
2019-04-25T06:06:53.050Z,48.80
2019-04-25T06:09:54.441Z,48.66
2019-04-25T06:12:48.867Z,48.56
2019-04-25T06:15:23.727Z,48.42
2019-04-25T06:18:14.527Z,48.24
2019-04-25T06:20:45.919Z,48.10
2019-04-25T06:23:41.860Z,47.90
2019-04-25T06:26:22.841Z,47.73
2019-04-25T06:28:53.779Z,47.55
2019-04-25T06:31:19.988Z,47.45
2019-04-25T06:33:51.306Z,47.34
2019-04-25T06:36:24.289Z,47.24
2019-04-25T06:38:55.380Z,47.17
2019-04-25T06:41:27.081Z,47.13
2019-04-25T06:44:00.189Z,47.03
2019-04-25T06:46:53.593Z,46.89
2019-04-25T06:49:27.902Z,46.80
2019-04-25T06:51:59.282Z,46.67
2019-04-25T06:54:30.463Z,46.55
2019-04-25T06:57:01.672Z,46.44
2019-04-25T06:59:34.404Z,46.28
2019-04-25T07:02:05.764Z,46.13
2019-04-25T07:04:37.025Z,46.01
2019-04-25T07:07:12.331Z,45.91
2019-04-25T07:09:41.228Z,45.85
2019-04-25T07:12:13.445Z,45.80
2019-04-25T07:14:44.796Z,45.69
2019-04-25T07:17:15.996Z,45.64
2019-04-25T07:19:47.315Z,45.52
2019-04-25T07:22:18.570Z,45.40
2019-04-25T07:24:49.775Z,45.33
2019-04-25T07:27:38.601Z,45.16
2019-04-25T07:30:48.658Z,44.91
2019-04-25T07:33:17.625Z,44.76
2019-04-25T07:35:48.829Z,44.46
2019-04-25T07:38:19.970Z,44.25
2019-04-25T07:40:51.211Z,44.07
2019-04-25T07:43:23.356Z,43.91
2019-04-25T07:45:54.621Z,43.79
2019-04-25T07:48:26.833Z,43.68
2019-04-25T07:50:58.132Z,43.55
2019-04-25T07:53:30.697Z,43.47
2019-04-25T07:56:04.160Z,43.40
2019-04-25T07:58:49.142Z,43.30
2019-04-25T08:01:15.929Z,43.21
2019-04-25T08:03:47.151Z,43.07
2019-04-25T08:06:18.430Z,42.89
2019-04-25T08:08:49.688Z,42.63
2019-04-25T08:11:20.860Z,42.47
2019-04-25T08:14:11.060Z,42.37
2019-04-25T08:16:44.820Z,42.23
2019-04-25T08:19:16.260Z,42.09
2019-04-25T08:21:47.754Z,41.83
2019-04-25T08:24:20.040Z,41.64
2019-04-25T08:26:51.295Z,41.51
2019-04-25T08:29:25.272Z,41.35
2019-04-25T08:31:56.077Z,41.20
2019-04-25T08:34:27.302Z,41.04
2019-04-25T08:36:58.477Z,40.95
2019-04-25T08:39:30.433Z,40.93
2019-04-25T08:42:03.361Z,40.85
2019-04-25T08:44:35.721Z,40.70
2019-04-25T08:47:07.453Z,40.47
2019-04-25T08:49:46.004Z,40.27
2019-04-25T08:52:18.332Z,40.11
2019-04-25T08:55:06.541Z,40.02
2019-04-25T08:57:55.846Z,39.84
2019-04-25T09:01:00.907Z,39.69
2019-04-25T09:03:36.623Z,39.45
2019-04-25T09:06:09.446Z,39.34
2019-04-25T09:08:41.081Z,39.21
2019-04-25T09:11:13.345Z,39.04
2019-04-25T09:13:45.050Z,38.96
2019-04-25T09:16:16.408Z,38.80
2019-04-25T09:18:47.660Z,38.44
2019-04-25T09:21:18.891Z,38.44
2019-04-25T09:23:50.110Z,38.41
2019-04-25T09:26:21.307Z,38.44
2019-04-25T09:28:53.680Z,38.39
2019-04-25T09:31:25.093Z,38.22
2019-04-25T09:33:56.985Z,38.07
2019-04-25T09:36:28.219Z,37.96
2019-04-25T09:39:03.774Z,37.78
2019-04-25T09:41:36.500Z,37.67
2019-04-25T09:44:09.312Z,37.55
2019-04-25T09:46:40.487Z,37.43
2019-04-25T09:49:25.879Z,37.22
2019-04-25T09:52:16.395Z,37.13
2019-04-25T09:54:53.533Z,36.97
2019-04-25T09:57:56.044Z,36.78
2019-04-25T10:00:36.593Z,36.71
2019-04-25T10:03:07.896Z,36.64
2019-04-25T10:05:39.206Z,36.47
2019-04-25T10:08:10.415Z,36.31
2019-04-25T10:10:42.480Z,36.11
2019-04-25T10:13:13.741Z,35.86
2019-04-25T10:16:04.402Z,35.71
2019-04-25T10:18:37.740Z,35.62
2019-04-25T10:21:14.341Z,35.50
2019-04-25T10:23:46.753Z,35.30
2019-04-25T10:26:19.784Z,35.04
2019-04-25T10:28:51.793Z,34.78
2019-04-25T10:31:24.110Z,34.72
2019-04-25T10:33:55.302Z,34.67
2019-04-25T10:36:26.670Z,34.49
2019-04-25T10:39:07.635Z,34.42
2019-04-25T10:41:33.296Z,34.41
2019-04-25T10:44:04.401Z,34.37
2019-04-25T10:46:35.608Z,34.25
2019-04-25T10:49:07.155Z,34.12
2019-04-25T10:51:38.364Z,34.09
2019-04-25T10:54:09.682Z,34.01
2019-04-25T10:56:41.707Z,33.94
2019-04-25T10:59:14.414Z,33.85
2019-04-25T11:01:47.228Z,33.65
2019-04-25T11:04:30.536Z,33.61
2019-04-25T11:07:03.615Z,33.52
2019-04-25T11:09:34.691Z,33.39
2019-04-25T11:12:08.574Z,33.26
2019-04-25T11:14:39.999Z,33.14
2019-04-25T11:17:13.220Z,33.03
2019-04-25T11:19:45.165Z,32.83
2019-04-25T11:22:16.505Z,32.71
2019-04-25T11:24:48.584Z,32.53
2019-04-25T11:27:20.021Z,32.44
2019-04-25T11:29:53.556Z,32.32
2019-04-25T11:32:27.675Z,32.20
2019-04-25T11:34:59.671Z,32.11
2019-04-25T11:37:34.210Z,31.77
2019-04-25T11:40:24.527Z,31.64
2019-04-25T11:42:55.825Z,31.54
2019-04-25T11:45:27.025Z,31.40
2019-04-25T11:47:58.610Z,31.27
2019-04-25T11:50:29.997Z,31.04
2019-04-25T11:53:01.388Z,30.88
2019-04-25T11:55:32.638Z,30.73
2019-04-25T11:58:03.861Z,30.63
2019-04-25T12:00:35.069Z,30.54
2019-04-25T12:03:08.312Z,30.36
2019-04-25T12:05:39.787Z,30.20
2019-04-25T12:08:13.450Z,30.12
2019-04-25T12:10:45.770Z,29.90
2019-04-25T12:13:17.873Z,29.76
2019-04-25T12:15:49.840Z,29.65
2019-04-25T12:18:21.050Z,29.40
2019-04-25T12:20:53.271Z,29.27
2019-04-25T12:23:25.126Z,29.10
2019-04-25T12:25:56.300Z,28.96
2019-04-25T12:28:27.562Z,28.66
2019-04-25T12:30:58.852Z,28.48
2019-04-25T12:33:30.144Z,28.30
2019-04-25T12:36:01.542Z,28.17
2019-04-25T12:38:33.483Z,28.12
2019-04-25T12:41:06.446Z,27.52
2019-04-25T12:43:39.373Z,25.15
2019-04-25T12:46:16.235Z,22.33
2019-04-25T12:48:47.637Z,20.02
2019-04-25T12:51:20.198Z,18.06
2019-04-25T12:53:51.418Z,17.46
2019-04-25T12:56:24.573Z,17.01
2019-04-25T12:58:56.559Z,15.92
2019-04-25T13:01:27.804Z,14.82
2019-04-25T13:03:58.992Z,13.85
2019-04-25T13:06:30.205Z,13.01
2019-04-25T13:09:01.632Z,12.42
2019-04-25T13:11:34.909Z,11.95
2019-04-25T13:14:07.316Z,11.47
2019-04-25T13:16:38.905Z,10.97
2019-04-25T13:19:20.071Z,10.58
2019-04-25T13:21:43.944Z,10.18
2019-04-25T13:24:15.296Z,9.78
2019-04-25T13:26:53.558Z,9.48
2019-04-25T13:29:49.496Z,9.20
2019-04-25T13:32:38.442Z,9.01
2019-04-25T13:35:16.983Z,8.81
2019-04-25T13:37:48.262Z,8.76
2019-04-25T13:40:19.441Z,8.54
2019-04-25T13:42:50.685Z,8.34
2019-04-25T13:45:22.259Z,8.18
2019-04-25T13:47:53.544Z,8.07
2019-04-25T13:50:25.202Z,7.98
2019-04-25T13:52:57.350Z,7.94
2019-04-25T13:55:28.628Z,7.99
2019-04-25T13:57:59.844Z,8.02
2019-04-25T14:00:31.164Z,8.12
2019-04-25T14:03:02.370Z,8.28
2019-04-25T14:05:35.309Z,8.45
2019-04-25T14:08:06.906Z,8.64
2019-04-25T14:10:38.098Z,8.79
2019-04-25T14:13:09.285Z,8.96
2019-04-25T14:15:45.264Z,9.24
2019-04-25T14:18:34.505Z,9.37
2019-04-25T14:21:11.022Z,9.51
2019-04-25T14:23:42.177Z,9.71
2019-04-25T14:26:13.520Z,9.75
2019-04-25T14:28:44.746Z,9.85
2019-04-25T14:31:35.481Z,9.99
2019-04-25T14:33:51.735Z,10.16
2019-04-25T14:36:25.009Z,10.45
2019-04-25T14:38:56.190Z,10.89
2019-04-25T14:41:28.128Z,11.35
2019-04-25T14:43:59.361Z,11.84
2019-04-25T14:46:30.617Z,12.29
2019-04-25T14:49:01.876Z,12.68
2019-04-25T14:51:33.130Z,13.04
2019-04-25T14:54:06.277Z,13.26
2019-04-25T14:56:57.982Z,13.54
2019-04-25T14:59:29.252Z,13.60
2019-04-25T15:02:00.459Z,13.64
2019-04-25T15:04:31.732Z,13.51
2019-04-25T15:07:03.040Z,13.28
2019-04-25T15:09:34.270Z,12.96
2019-04-25T15:12:05.571Z,12.69
2019-04-25T15:14:36.720Z,12.39
2019-04-25T15:17:09.191Z,12.15
2019-04-25T15:19:40.504Z,11.85
2019-04-25T15:22:11.883Z,11.66
2019-04-25T15:24:43.108Z,11.05
2019-04-25T15:27:14.277Z,11.05
2019-04-25T15:29:45.435Z,11.29
2019-04-25T15:32:19.937Z,11.29
2019-04-25T15:34:55.148Z,11.32
2019-04-25T15:37:45.267Z,11.50
2019-04-25T15:40:26.363Z,11.63
2019-04-25T15:43:06.633Z,11.92
2019-04-25T15:46:06.252Z,12.17
2019-04-25T15:48:38.457Z,12.42
2019-04-25T15:51:09.778Z,12.77
2019-04-25T15:53:41.061Z,13.09
2019-04-25T15:56:12.328Z,13.36
2019-04-25T15:58:43.630Z,13.61
2019-04-25T16:01:14.911Z,13.93
2019-04-25T16:03:46.331Z,14.13
2019-04-25T16:06:17.635Z,14.37
2019-04-25T16:08:49.042Z,14.66
2019-04-25T16:11:20.393Z,14.89
2019-04-25T16:13:51.690Z,15.13
2019-04-25T16:16:22.888Z,15.30
2019-04-25T16:18:54.185Z,15.41
2019-04-25T16:21:25.383Z,15.61
2019-04-25T16:23:57.844Z,15.74
2019-04-25T16:26:29.576Z,15.86
2019-04-25T16:29:00.894Z,16.01
2019-04-25T16:31:33.155Z,16.17
2019-04-25T16:34:04.375Z,16.34
2019-04-25T16:36:35.541Z,16.54
2019-04-25T16:39:09.160Z,16.73
2019-04-25T16:41:42.628Z,16.98
2019-04-25T16:44:15.631Z,17.20
2019-04-25T16:46:46.847Z,17.43
2019-04-25T16:49:18.114Z,17.68
2019-04-25T16:51:49.383Z,17.91
2019-04-25T16:54:21.311Z,18.18
2019-04-25T16:56:52.535Z,18.42
2019-04-25T16:59:23.721Z,18.65
2019-04-25T17:01:55.179Z,18.90
2019-04-25T17:04:29.723Z,19.13
2019-04-25T17:07:02.157Z,19.40
2019-04-25T17:09:33.879Z,19.64
2019-04-25T17:12:06.281Z,19.88
2019-04-25T17:14:46.062Z,20.11
2019-04-25T17:17:40.432Z,20.32
2019-04-25T17:20:17.622Z,20.57
2019-04-25T17:22:48.824Z,20.80
2019-04-25T17:25:20.382Z,21.00
2019-04-25T17:27:51.695Z,21.19
2019-04-25T17:30:23.275Z,21.36
2019-04-25T17:33:04.430Z,21.59
2019-04-25T17:35:58.941Z,21.79
2019-04-25T17:38:49.246Z,21.95
2019-04-25T17:41:20.684Z,22.13
2019-04-25T17:43:52.956Z,22.33
2019-04-25T17:46:24.175Z,22.46
2019-04-25T17:48:55.350Z,22.60
2019-04-25T17:51:26.628Z,22.74
2019-04-25T17:53:59.034Z,22.84
2019-04-25T17:56:30.422Z,22.97
2019-04-25T17:59:01.665Z,23.06
2019-04-25T18:01:34.053Z,23.16
2019-04-25T18:04:05.894Z,23.31
2019-04-25T18:06:37.680Z,23.45
2019-04-25T18:09:09.087Z,23.54
2019-04-25T18:11:42.257Z,23.62
2019-04-25T18:14:13.606Z,23.74
2019-04-25T18:16:46.501Z,23.85
2019-04-25T18:19:37.265Z,23.91
2019-04-25T18:22:15.678Z,23.99
2019-04-25T18:25:24.398Z,24.08
2019-04-25T18:28:04.452Z,24.18
2019-04-25T18:30:35.801Z,24.25
2019-04-25T18:33:16.825Z,24.33
2019-04-25T18:35:48.755Z,24.38
2019-04-25T18:38:39.660Z,24.46
2019-04-25T18:41:20.318Z,24.57
2019-04-25T18:43:56.405Z,24.68
2019-04-25T18:46:40.485Z,24.75
2019-04-25T18:49:12.684Z,24.79
2019-04-25T18:51:55.170Z,24.84
2019-04-25T18:54:34.014Z,24.87
2019-04-25T18:57:23.159Z,24.89
2019-04-25T19:00:13.364Z,24.91
2019-04-25T19:03:02.053Z,24.94
2019-04-25T19:05:52.272Z,24.98
2019-04-25T19:08:24.530Z,24.99
2019-04-25T19:10:55.779Z,25.05
2019-04-25T19:13:27.044Z,25.10
2019-04-25T19:15:58.259Z,25.14
2019-04-25T19:18:29.463Z,25.18
2019-04-25T19:21:00.782Z,25.23
2019-04-25T19:23:32.041Z,25.31
2019-04-25T19:26:03.293Z,25.41
2019-04-25T19:28:34.463Z,25.53
2019-04-25T19:31:05.649Z,25.60
2019-04-25T19:33:37.419Z,25.69
2019-04-25T19:36:08.658Z,25.76
2019-04-25T19:38:40.649Z,25.83
2019-04-25T19:41:29.884Z,25.91
2019-04-25T19:44:05.011Z,25.98
2019-04-25T19:46:41.484Z,26.04
2019-04-25T19:49:13.008Z,26.13
2019-04-25T19:51:45.077Z,26.17
2019-04-25T19:54:17.505Z,26.21
2019-04-25T19:56:49.620Z,26.29
2019-04-25T19:59:20.928Z,26.32
2019-04-25T20:01:53.925Z,26.38
2019-04-25T20:04:44.392Z,26.47
2019-04-25T20:07:34.590Z,26.51
2019-04-25T20:10:29.420Z,26.61
2019-04-25T20:13:00.781Z,26.66
2019-04-25T20:15:32.009Z,26.75
2019-04-25T20:18:03.182Z,26.83
2019-04-25T20:20:34.444Z,26.90
2019-04-25T20:23:05.591Z,26.93
2019-04-25T20:25:36.980Z,27.00
2019-04-25T20:28:08.212Z,27.07
2019-04-25T20:30:39.447Z,27.12
2019-04-25T20:33:10.825Z,27.19
2019-04-25T20:35:42.092Z,27.23
2019-04-25T20:38:13.420Z,27.27
2019-04-25T20:40:45.203Z,27.31
2019-04-25T20:43:17.555Z,27.38
2019-04-25T20:45:48.870Z,27.45
2019-04-25T20:48:20.093Z,27.54
2019-04-25T20:50:52.379Z,27.55
2019-04-25T20:53:23.923Z,27.64
2019-04-25T20:55:55.067Z,27.58
2019-04-25T20:58:26.390Z,27.71
2019-04-25T21:00:59.216Z,27.75
2019-04-25T21:03:30.535Z,27.79
2019-04-25T21:06:10.416Z,27.86
2019-04-25T21:08:41.755Z,27.89
2019-04-25T21:11:12.988Z,27.95
2019-04-25T21:14:02.050Z,27.99
2019-04-25T21:16:51.860Z,28.00
2019-04-25T21:19:27.104Z,28.10
2019-04-25T21:21:58.730Z,28.09
2019-04-25T21:24:31.039Z,28.16
2019-04-25T21:27:02.604Z,28.18
2019-04-25T21:29:33.931Z,28.20
2019-04-25T21:32:05.187Z,28.22
2019-04-25T21:34:36.515Z,28.26
2019-04-25T21:37:08.042Z,28.25
2019-04-25T21:39:51.506Z,28.28
2019-04-25T21:42:56.220Z,28.31
2019-04-25T21:45:27.862Z,28.33
2019-04-25T21:47:59.342Z,28.37
2019-04-25T21:50:30.912Z,28.39
2019-04-25T21:53:02.399Z,28.40
2019-04-25T21:55:34.732Z,28.41
2019-04-25T21:58:06.829Z,28.44
2019-04-25T22:00:56.583Z,28.44
2019-04-25T22:03:30.082Z,28.47
2019-04-25T22:06:01.659Z,28.50
2019-04-25T22:08:33.387Z,28.52
2019-04-25T22:11:05.530Z,28.54
2019-04-25T22:13:37.078Z,28.57
2019-04-25T22:16:08.890Z,28.62
2019-04-25T22:18:40.536Z,28.62
2019-04-25T22:21:12.152Z,28.63
2019-04-25T22:23:43.889Z,28.63
2019-04-25T22:26:15.138Z,28.65
2019-04-25T22:28:46.605Z,28.65
2019-04-25T22:31:23.016Z,28.65
2019-04-25T22:34:18.937Z,28.69
2019-04-25T22:36:50.456Z,28.69
2019-04-25T22:39:21.618Z,28.69
2019-04-25T22:41:52.857Z,28.71
2019-04-25T22:44:24.347Z,28.71
2019-04-25T22:46:55.905Z,28.73
2019-04-25T22:49:28.787Z,28.73
2019-04-25T22:52:01.672Z,28.75
2019-04-25T22:54:33.919Z,28.77
2019-04-25T22:57:05.084Z,28.79
2019-04-25T22:59:36.918Z,28.82
2019-04-25T23:02:26.157Z,28.83
2019-04-25T23:05:19.596Z,28.87
2019-04-25T23:07:52.120Z,28.88
2019-04-25T23:10:23.531Z,28.91
2019-04-25T23:12:54.756Z,28.93
2019-04-25T23:15:25.979Z,28.96
2019-04-25T23:17:57.438Z,28.98
2019-04-25T23:20:28.574Z,28.96
2019-04-25T23:22:59.735Z,29.00
2019-04-25T23:25:49.878Z,29.00
2019-04-25T23:28:22.521Z,28.98
2019-04-25T23:31:12.551Z,28.96
2019-04-25T23:33:44.044Z,28.95
2019-04-25T23:36:15.611Z,28.95
2019-04-25T23:38:46.782Z,28.94
2019-04-25T23:41:18.295Z,28.93
2019-04-25T23:43:49.475Z,28.93
2019-04-25T23:46:20.692Z,28.92
2019-04-25T23:48:51.811Z,28.94
2019-04-25T23:51:23.030Z,28.92
2019-04-25T23:53:54.392Z,28.93
2019-04-25T23:56:25.613Z,28.96
2019-04-25T23:58:56.950Z,28.98
